createdAt,value
2022-09-15T00:01:11.857Z,28.38
2022-09-15T00:03:40.499Z,33.05
2022-09-15T00:06:09.473Z,29.33
2022-09-15T00:08:37.027Z,31.42
2022-09-15T00:11:22.901Z,35.63
2022-09-15T00:13:51.935Z,36.50
2022-09-15T00:16:22.114Z,32.85
2022-09-15T00:18:49.293Z,32.40
2022-09-15T00:21:21.445Z,33.95
2022-09-15T00:23:49.816Z,36.28
2022-09-15T00:26:22.674Z,32.47
2022-09-15T00:28:50.556Z,32.03
2022-09-15T00:31:22.477Z,35.58
2022-09-15T00:33:52.816Z,33.97
2022-09-15T00:36:21.556Z,37.20
2022-09-15T00:38:49.319Z,36.55
2022-09-15T00:41:20.437Z,34.40
2022-09-15T00:43:50.489Z,30.73
2022-09-15T00:46:30.888Z,31.75
2022-09-15T00:49:19.200Z,34.92
2022-09-15T00:52:08.979Z,33.95
2022-09-15T00:54:44.097Z,29.55
2022-09-15T00:57:23.480Z,28.17
2022-09-15T00:59:52.963Z,30.73
2022-09-15T01:02:26.918Z,31.05
2022-09-15T01:04:58.596Z,38.83
2022-09-15T01:07:56.100Z,31.42
2022-09-15T01:10:37.856Z,38.60
2022-09-15T01:13:11.875Z,32.72
2022-09-15T01:15:47.793Z,36.45
2022-09-15T01:18:33.112Z,33.00
2022-09-15T01:21:54.619Z,30.08
2022-09-15T01:24:57.191Z,27.52
2022-09-15T01:28:30.130Z,32.97
2022-09-15T01:31:35.214Z,34.60
2022-09-15T01:34:17.404Z,25.77
2022-09-15T01:37:05.894Z,29.25
2022-09-15T01:39:41.437Z,37.03
2022-09-15T01:42:14.730Z,33.47
2022-09-15T01:44:57.712Z,30.65
2022-09-15T01:47:29.413Z,37.95
2022-09-15T01:50:15.357Z,33.40
2022-09-15T01:52:48.918Z,30.00
2022-09-15T01:55:30.190Z,34.30
2022-09-15T01:57:58.889Z,36.00
2022-09-15T02:00:25.991Z,40.15
2022-09-15T02:03:04.233Z,36.47
2022-09-15T02:05:50.155Z,40.88
2022-09-15T02:08:57.421Z,42.08
2022-09-15T02:11:30.277Z,35.67
2022-09-15T02:14:28.307Z,43.95
2022-09-15T02:16:56.039Z,40.83
2022-09-15T02:19:38.936Z,40.08
2022-09-15T02:22:23.281Z,44.92
2022-09-15T02:25:03.039Z,34.30
2022-09-15T02:27:37.431Z,48.83
2022-09-15T02:30:13.206Z,41.35
2022-09-15T02:32:51.703Z,36.95
2022-09-15T02:35:19.075Z,43.33
2022-09-15T02:37:47.166Z,49.17
2022-09-15T02:40:14.372Z,45.78
2022-09-15T02:42:51.142Z,43.03
2022-09-15T02:45:20.403Z,42.25
2022-09-15T02:47:47.355Z,36.10
2022-09-15T02:50:14.439Z,48.67
2022-09-15T02:52:41.504Z,39.63
2022-09-15T02:55:10.211Z,36.75
2022-09-15T02:57:37.391Z,41.17
2022-09-15T03:00:13.240Z,35.72
2022-09-15T03:02:43.093Z,43.28
2022-09-15T03:05:10.458Z,35.03
2022-09-15T03:07:38.522Z,35.13
2022-09-15T03:10:08.628Z,37.67
2022-09-15T03:12:40.866Z,41.15
2022-09-15T03:15:11.068Z,40.35
2022-09-15T03:17:41.645Z,39.05
2022-09-15T03:20:11.772Z,46.35
2022-09-15T03:22:39.182Z,37.65
2022-09-15T03:25:07.304Z,32.45
2022-09-15T03:27:35.604Z,39.03
2022-09-15T03:30:05.152Z,34.25
2022-09-15T03:32:32.339Z,41.05
2022-09-15T03:34:59.842Z,43.63
2022-09-15T03:37:27.441Z,42.92
2022-09-15T03:39:54.409Z,51.17
2022-09-15T03:42:21.965Z,48.40
2022-09-15T03:44:48.859Z,34.90
2022-09-15T03:47:15.874Z,38.22
2022-09-15T03:49:42.971Z,36.38
2022-09-15T03:52:10.299Z,34.63
2022-09-15T03:54:37.261Z,41.35
2022-09-15T03:57:04.597Z,36.10
2022-09-15T03:59:31.567Z,40.72
2022-09-15T04:01:58.591Z,40.45
2022-09-15T04:04:25.608Z,35.75
2022-09-15T04:06:53.182Z,33.05
2022-09-15T04:09:21.399Z,40.47
2022-09-15T04:11:48.435Z,36.03
2022-09-15T04:14:15.932Z,34.60
2022-09-15T04:16:42.895Z,31.15
2022-09-15T04:19:09.911Z,35.15
2022-09-15T04:21:37.896Z,39.15
2022-09-15T04:24:05.887Z,35.35
2022-09-15T04:26:36.921Z,31.95
2022-09-15T04:29:13.593Z,36.72
2022-09-15T04:31:40.807Z,35.70
2022-09-15T04:34:08.004Z,32.00
2022-09-15T04:36:35.017Z,31.77
2022-09-15T04:39:02.096Z,43.13
2022-09-15T04:41:29.202Z,30.75
2022-09-15T04:43:56.368Z,35.83
2022-09-15T04:46:26.148Z,32.63
2022-09-15T04:48:53.990Z,34.92
2022-09-15T04:51:23.046Z,41.00
2022-09-15T04:53:51.977Z,35.95
2022-09-15T04:56:23.679Z,31.58
2022-09-15T04:58:58.245Z,34.55
2022-09-15T05:01:33.679Z,27.02
2022-09-15T05:04:03.992Z,28.98
2022-09-15T05:06:32.329Z,32.60
2022-09-15T05:08:59.427Z,32.00
2022-09-15T05:11:28.326Z,34.13
2022-09-15T05:13:55.415Z,31.05
2022-09-15T05:16:26.410Z,30.65
2022-09-15T05:18:57.560Z,36.95
2022-09-15T05:21:25.665Z,31.67
2022-09-15T05:23:54.129Z,34.53
2022-09-15T05:26:31.714Z,35.47
2022-09-15T05:28:58.745Z,37.70
2022-09-15T05:31:32.027Z,33.38
2022-09-15T05:34:02.823Z,33.60
2022-09-15T05:36:30.402Z,35.95
2022-09-15T05:38:58.995Z,38.50
2022-09-15T05:41:28.180Z,31.00
2022-09-15T05:43:57.343Z,27.08
2022-09-15T05:46:27.247Z,30.45
2022-09-15T05:48:57.904Z,30.30
2022-09-15T05:51:25.176Z,27.20
2022-09-15T05:53:52.419Z,32.63
2022-09-15T05:56:20.331Z,25.75
2022-09-15T05:58:49.141Z,31.52
2022-09-15T06:01:22.844Z,28.63
2022-09-15T06:03:50.248Z,30.58
2022-09-15T06:06:18.057Z,25.80
2022-09-15T06:08:51.906Z,33.75
2022-09-15T06:11:24.825Z,29.00
2022-09-15T06:13:52.122Z,29.40
2022-09-15T06:16:23.461Z,21.83
2022-09-15T06:18:53.306Z,27.08
2022-09-15T06:21:27.227Z,24.30
2022-09-15T06:23:56.852Z,25.63
2022-09-15T06:26:24.605Z,20.27
2022-09-15T06:28:58.055Z,29.98
2022-09-15T06:31:27.973Z,21.10
2022-09-15T06:33:57.625Z,20.35
2022-09-15T06:36:30.299Z,18.48
2022-09-15T06:38:58.690Z,19.35
2022-09-15T06:41:32.955Z,25.75
2022-09-15T06:44:14.124Z,22.20
2022-09-15T06:46:41.007Z,21.67
2022-09-15T06:49:07.972Z,24.00
2022-09-15T06:51:36.161Z,17.48
2022-09-15T06:54:04.644Z,18.73
2022-09-15T06:56:37.229Z,23.08
2022-09-15T06:59:05.562Z,17.80
2022-09-15T07:01:33.227Z,13.27
2022-09-15T07:04:05.808Z,29.40
2022-09-15T07:06:33.941Z,16.42
2022-09-15T07:09:02.435Z,22.42
2022-09-15T07:11:30.016Z,16.63
2022-09-15T07:13:57.269Z,18.98
2022-09-15T07:16:27.840Z,21.95
2022-09-15T07:18:57.175Z,17.85
2022-09-15T07:21:24.632Z,15.35
2022-09-15T07:23:52.253Z,17.92
2022-09-15T07:26:23.995Z,26.77
2022-09-15T07:28:58.773Z,21.08
2022-09-15T07:31:29.930Z,23.45
2022-09-15T07:33:59.141Z,18.27
2022-09-15T07:36:26.232Z,16.15
2022-09-15T07:38:53.510Z,17.73
2022-09-15T07:41:25.449Z,16.88
2022-09-15T07:43:56.187Z,11.25
2022-09-15T07:46:26.159Z,14.13
2022-09-15T07:48:57.950Z,15.48
2022-09-15T07:51:26.270Z,16.90
2022-09-15T07:53:54.326Z,9.13
2022-09-15T07:56:23.839Z,12.70
2022-09-15T07:58:51.347Z,10.02
2022-09-15T08:01:22.418Z,12.23
2022-09-15T08:03:52.663Z,17.08
2022-09-15T08:06:25.138Z,19.05
2022-09-15T08:08:56.331Z,9.95
2022-09-15T08:11:26.619Z,11.93
2022-09-15T08:13:53.801Z,17.45
2022-09-15T08:16:24.136Z,11.38
2022-09-15T08:18:55.292Z,9.98
2022-09-15T08:21:27.597Z,11.90
2022-09-15T08:23:59.383Z,13.13
2022-09-15T08:26:29.352Z,8.05
2022-09-15T08:28:57.863Z,9.13
2022-09-15T08:31:25.302Z,7.55
2022-09-15T08:33:55.514Z,10.82
2022-09-15T08:36:24.475Z,8.93
2022-09-15T08:38:51.491Z,14.35
2022-09-15T08:41:40.204Z,9.88
2022-09-15T08:44:22.803Z,10.40
2022-09-15T08:46:58.944Z,12.10
2022-09-15T08:49:51.101Z,14.40
2022-09-15T08:52:38.700Z,12.75
2022-09-15T08:55:33.647Z,10.77
2022-09-15T09:00:30.377Z,9.02
2022-09-15T09:03:14.492Z,12.43
2022-09-15T09:06:03.340Z,10.45
2022-09-15T09:08:56.350Z,9.48
2022-09-15T09:11:56.482Z,11.80
2022-09-15T09:15:00.988Z,9.68
2022-09-15T09:17:59.069Z,6.22
2022-09-15T09:20:47.699Z,8.85
2022-09-15T09:23:23.862Z,8.35
2022-09-15T09:25:52.876Z,21.17
2022-09-15T09:28:35.163Z,14.07
2022-09-15T09:31:07.546Z,9.45
2022-09-15T09:33:49.728Z,8.70
2022-09-15T09:36:17.142Z,14.18
2022-09-15T09:38:48.173Z,21.25
2022-09-15T09:41:23.303Z,7.38
2022-09-15T09:43:55.986Z,6.75
2022-09-15T09:46:23.129Z,8.88
2022-09-15T09:49:05.012Z,10.52
2022-09-15T09:51:49.033Z,8.38
2022-09-15T09:54:16.207Z,5.32
2022-09-15T09:56:45.366Z,5.30
2022-09-15T09:59:41.673Z,8.30
2022-09-15T10:02:11.857Z,9.43
2022-09-15T10:04:41.933Z,6.22
2022-09-15T10:07:09.560Z,6.43
2022-09-15T10:09:39.027Z,6.50
2022-09-15T10:12:16.154Z,7.13
2022-09-15T10:14:45.446Z,5.68
2022-09-15T10:17:20.206Z,9.68
2022-09-15T10:19:58.332Z,6.95
2022-09-15T10:22:40.876Z,6.28
2022-09-15T10:25:19.672Z,7.28
2022-09-15T10:28:09.613Z,12.20
2022-09-15T10:30:38.556Z,8.45
2022-09-15T10:33:27.027Z,8.07
2022-09-15T10:36:03.319Z,6.90
2022-09-15T10:39:14.016Z,12.85
2022-09-15T10:42:04.482Z,17.48
2022-09-15T10:44:59.994Z,6.72
2022-09-15T10:48:07.069Z,6.35
2022-09-15T10:51:34.191Z,9.25
2022-09-15T10:54:24.652Z,6.38
2022-09-15T10:57:45.311Z,11.57
2022-09-15T11:01:12.366Z,6.43
2022-09-15T11:03:47.868Z,7.85
2022-09-15T11:06:34.175Z,10.73
2022-09-15T11:09:31.997Z,6.38
2022-09-15T11:12:25.875Z,8.48
2022-09-15T11:15:50.488Z,13.77
2022-09-15T11:18:48.136Z,14.48
2022-09-15T11:21:28.523Z,11.43
2022-09-15T11:24:48.328Z,8.35
2022-09-15T11:27:31.320Z,11.35
2022-09-15T11:30:20.138Z,3.17
2022-09-15T11:33:15.019Z,11.50
2022-09-15T11:38:35.711Z,5.28
2022-09-15T11:41:10.675Z,3.45
2022-09-15T11:43:55.382Z,7.30
2022-09-15T11:47:22.929Z,7.72
2022-09-15T11:50:10.982Z,7.18
2022-09-15T11:52:53.100Z,4.50
2022-09-15T11:55:55.047Z,3.95
2022-09-15T11:58:37.698Z,11.50
2022-09-15T12:01:10.731Z,8.90
2022-09-15T12:03:43.294Z,12.10
2022-09-15T12:06:55.164Z,14.05
2022-09-15T12:09:22.866Z,13.35
2022-09-15T12:11:59.346Z,12.35
2022-09-15T12:14:37.119Z,3.70
2022-09-15T12:17:08.004Z,24.27
2022-09-15T12:19:53.681Z,4.72
2022-09-15T12:22:52.074Z,4.30
2022-09-15T12:25:40.777Z,17.23
2022-09-15T12:28:38.389Z,11.60
2022-09-15T12:31:24.876Z,5.20
2022-09-15T12:33:56.242Z,11.68
2022-09-15T12:36:44.036Z,6.30
2022-09-15T12:39:26.715Z,6.18
2022-09-15T12:42:08.767Z,4.03
2022-09-15T12:45:12.351Z,28.60
2022-09-15T12:47:49.101Z,6.57
2022-09-15T12:50:28.868Z,4.35
2022-09-15T12:53:23.049Z,9.60
2022-09-15T12:55:58.939Z,7.45
2022-09-15T12:58:49.658Z,12.02
2022-09-15T13:01:23.123Z,5.38
2022-09-15T13:03:50.205Z,7.30
2022-09-15T13:06:31.712Z,15.90
2022-09-15T13:09:05.562Z,11.82
2022-09-15T13:11:38.625Z,6.93
2022-09-15T13:14:08.297Z,6.23
2022-09-15T13:16:41.468Z,7.80
2022-09-15T13:19:33.083Z,6.22
2022-09-15T13:22:12.338Z,4.30
2022-09-15T13:25:15.598Z,9.70
2022-09-15T13:27:52.011Z,19.00
2022-09-15T13:31:00.929Z,6.13
2022-09-15T13:40:51.084Z,20.80
2022-09-15T13:43:53.476Z,5.20
2022-09-15T13:46:41.543Z,8.27
2022-09-15T13:49:48.738Z,4.45
2022-09-15T13:52:20.767Z,9.30
2022-09-15T13:55:19.317Z,8.25
2022-09-15T14:00:49.451Z,10.65
2022-09-15T14:03:25.609Z,9.90
2022-09-15T14:05:55.456Z,4.20
2022-09-15T14:08:32.421Z,5.53
2022-09-15T14:11:08.588Z,6.30
2022-09-15T14:13:46.481Z,7.93
2022-09-15T14:16:33.850Z,8.40
2022-09-15T14:19:04.743Z,11.88
2022-09-15T14:21:34.803Z,4.07
2022-09-15T14:24:20.229Z,6.88
2022-09-15T14:26:48.556Z,7.70
2022-09-15T14:29:26.672Z,9.75
2022-09-15T14:32:01.308Z,4.90
2022-09-15T14:34:35.426Z,8.93
2022-09-15T14:37:08.226Z,7.80
2022-09-15T14:39:37.693Z,6.07
2022-09-15T14:42:32.418Z,3.35
2022-09-15T14:48:17.095Z,4.53
2022-09-15T14:50:57.896Z,6.93
2022-09-15T14:53:28.155Z,3.88
2022-09-15T14:56:18.959Z,6.70
2022-09-15T14:59:10.543Z,3.88
2022-09-15T15:02:32.437Z,4.65
2022-09-15T15:05:30.731Z,3.60
2022-09-15T15:07:58.252Z,2.42
2022-09-15T15:10:35.618Z,5.78
2022-09-15T15:13:12.167Z,4.95
2022-09-15T15:15:39.604Z,4.30
2022-09-15T15:18:46.932Z,8.20
2022-09-15T15:21:37.273Z,7.18
2022-09-15T15:24:20.093Z,3.00
2022-09-15T15:26:50.800Z,6.85
2022-09-15T15:29:41.162Z,12.20
2022-09-15T15:32:20.766Z,4.68
2022-09-15T15:35:01.282Z,3.38
2022-09-15T15:37:32.685Z,6.93
2022-09-15T15:40:07.104Z,4.30
2022-09-15T15:42:35.245Z,7.68
2022-09-15T15:45:25.526Z,5.97
2022-09-15T15:47:53.404Z,5.05
2022-09-15T15:50:25.407Z,3.25
2022-09-15T15:52:53.084Z,3.55
2022-09-15T15:55:28.830Z,4.95
2022-09-15T15:57:56.170Z,3.20
2022-09-15T16:00:36.603Z,5.45
2022-09-15T16:03:05.354Z,5.00
2022-09-15T16:05:33.879Z,2.28
2022-09-15T16:08:11.231Z,2.92
2022-09-15T16:10:48.442Z,4.57
2022-09-15T16:13:19.955Z,4.65
2022-09-15T16:15:48.016Z,2.47
2022-09-15T16:18:15.629Z,4.82
2022-09-15T16:20:43.319Z,6.93
2022-09-15T16:23:18.033Z,3.08
2022-09-15T16:25:55.229Z,9.02
2022-09-15T16:28:22.272Z,7.78
2022-09-15T16:30:49.991Z,11.25
2022-09-15T16:33:19.459Z,3.88
2022-09-15T16:35:53.040Z,10.43
2022-09-15T16:38:21.365Z,4.15
2022-09-15T16:40:51.120Z,4.35
2022-09-15T16:43:23.005Z,6.50
2022-09-15T16:45:54.159Z,4.85
2022-09-15T16:48:21.544Z,3.10
2022-09-15T16:51:16.884Z,4.43
2022-09-15T16:53:39.438Z,6.35
2022-09-15T16:56:11.181Z,3.72
2022-09-15T16:58:40.441Z,13.93
2022-09-15T17:01:15.626Z,6.57
2022-09-15T17:03:43.374Z,5.82
2022-09-15T17:06:14.977Z,17.30
2022-09-15T17:08:48.066Z,8.60
2022-09-15T17:11:19.689Z,4.00
2022-09-15T17:13:48.101Z,17.95
2022-09-15T17:16:21.548Z,17.27
2022-09-15T17:18:49.671Z,3.25
2022-09-15T17:21:18.271Z,3.08
2022-09-15T17:23:49.194Z,3.58
2022-09-15T17:26:23.965Z,5.60
2022-09-15T17:28:52.958Z,6.47
2022-09-15T17:31:23.575Z,5.03
2022-09-15T17:33:53.222Z,2.22
2022-09-15T17:36:20.280Z,6.63
2022-09-15T17:38:48.865Z,4.15
2022-09-15T17:41:19.566Z,2.08
2022-09-15T17:43:47.530Z,4.70
2022-09-15T17:46:15.149Z,6.53
2022-09-15T17:48:42.295Z,4.82
2022-09-15T17:51:17.094Z,5.60
2022-09-15T17:53:46.389Z,7.15
2022-09-15T17:56:13.691Z,4.40
2022-09-15T17:58:41.415Z,7.32
2022-09-15T18:01:13.261Z,4.53
2022-09-15T18:03:43.222Z,6.57
2022-09-15T18:06:11.375Z,4.75
2022-09-15T18:08:38.444Z,4.95
2022-09-15T18:11:07.002Z,9.75
2022-09-15T18:13:35.188Z,3.13
2022-09-15T18:16:11.322Z,3.05
2022-09-15T18:18:40.257Z,10.90
2022-09-15T18:21:11.773Z,5.93
2022-09-15T18:23:39.141Z,4.57
2022-09-15T18:26:06.353Z,7.28
2022-09-15T18:28:33.399Z,6.25
2022-09-15T18:31:00.388Z,6.47
2022-09-15T18:33:27.429Z,7.63
2022-09-15T18:35:58.981Z,8.73
2022-09-15T18:38:27.542Z,7.60
2022-09-15T18:40:57.025Z,2.78
2022-09-15T18:43:27.262Z,4.50
2022-09-15T18:46:01.170Z,3.85
2022-09-15T18:48:29.280Z,6.32
2022-09-15T18:50:56.783Z,5.57
2022-09-15T18:53:24.583Z,5.45
2022-09-15T18:55:51.727Z,3.80
2022-09-15T18:58:19.796Z,8.75
2022-09-15T19:00:49.051Z,5.28
2022-09-15T19:03:16.012Z,15.25
2022-09-15T19:05:45.950Z,3.17
2022-09-15T19:08:14.004Z,6.60
2022-09-15T19:10:43.806Z,4.90
2022-09-15T19:13:15.558Z,3.95
2022-09-15T19:15:44.034Z,5.50
2022-09-15T19:18:11.259Z,3.80
2022-09-15T19:20:38.351Z,3.15
2022-09-15T19:23:05.475Z,3.13
2022-09-15T19:25:32.814Z,3.45
2022-09-15T19:27:59.772Z,2.35
2022-09-15T19:30:27.156Z,3.03
2022-09-15T19:32:54.380Z,3.60
2022-09-15T19:35:21.572Z,5.40
2022-09-15T19:37:48.859Z,3.78
2022-09-15T19:40:18.011Z,5.82
2022-09-15T19:42:45.657Z,5.68
2022-09-15T19:45:13.707Z,5.55
2022-09-15T19:47:41.685Z,6.75
2022-09-15T19:50:12.024Z,6.63
2022-09-15T19:52:40.375Z,5.40
2022-09-15T19:55:09.800Z,3.58
2022-09-15T19:57:41.777Z,1.27
2022-09-15T20:00:12.658Z,6.05
2022-09-15T20:02:40.247Z,2.28
2022-09-15T20:07:53.531Z,3.28
2022-09-15T20:10:20.572Z,4.38
2022-09-15T20:12:47.804Z,1.88
2022-09-15T20:15:16.343Z,2.58
2022-09-15T20:17:43.576Z,6.18
2022-09-15T20:20:11.782Z,3.33
2022-09-15T20:22:38.848Z,2.78
2022-09-15T20:25:06.235Z,2.53
2022-09-15T20:27:33.679Z,1.95
2022-09-15T20:30:00.642Z,1.70
2022-09-15T20:32:29.276Z,2.85
2022-09-15T20:34:56.247Z,2.90
2022-09-15T20:37:23.304Z,4.07
2022-09-15T20:39:51.360Z,2.70
2022-09-15T20:42:18.798Z,2.80
2022-09-15T20:44:45.854Z,4.00
2022-09-15T20:47:12.927Z,3.20
2022-09-15T20:49:40.025Z,2.65
2022-09-15T20:52:09.005Z,5.05
2022-09-15T20:54:36.067Z,1.90
2022-09-15T20:57:03.148Z,4.47
2022-09-15T20:59:30.127Z,4.53
2022-09-15T21:01:57.234Z,2.58
2022-09-15T21:04:24.392Z,2.78
2022-09-15T21:06:51.450Z,0.95
2022-09-15T21:09:18.652Z,1.77
2022-09-15T21:11:48.176Z,2.40
2022-09-15T21:14:17.193Z,2.75
2022-09-15T21:16:44.603Z,5.35
2022-09-15T21:19:14.464Z,3.25
2022-09-15T21:21:41.481Z,1.88
2022-09-15T21:24:09.916Z,5.72
2022-09-15T21:27:00.954Z,4.32
2022-09-15T21:29:29.094Z,4.13
2022-09-15T21:31:56.332Z,5.38
2022-09-15T21:34:24.097Z,6.72
2022-09-15T21:36:53.491Z,5.50
2022-09-15T21:39:20.879Z,5.75
2022-09-15T21:41:47.848Z,4.00
2022-09-15T21:44:15.152Z,2.78
2022-09-15T21:46:42.583Z,4.35
2022-09-15T21:49:09.556Z,4.72
2022-09-15T21:51:36.654Z,5.22
2022-09-15T21:54:03.747Z,4.63
2022-09-15T21:56:31.239Z,4.15
2022-09-15T21:58:58.554Z,5.13
2022-09-15T22:01:30.656Z,3.58
2022-09-15T22:04:04.827Z,7.25
2022-09-15T22:06:35.884Z,5.38
2022-09-15T22:09:14.436Z,5.95
2022-09-15T22:11:42.223Z,3.67
2022-09-15T22:14:10.397Z,5.13
2022-09-15T22:16:40.126Z,4.93
2022-09-15T22:19:09.769Z,4.13
2022-09-15T22:21:41.441Z,3.45
2022-09-15T22:24:13.759Z,3.15
2022-09-15T22:26:42.873Z,8.05
2022-09-15T22:29:15.909Z,5.43
2022-09-15T22:31:43.078Z,4.32
2022-09-15T22:34:10.429Z,6.30
2022-09-15T22:36:38.063Z,4.38
2022-09-15T22:39:06.320Z,4.63
2022-09-15T22:41:37.471Z,5.78
2022-09-15T22:44:06.624Z,5.88
2022-09-15T22:46:34.707Z,6.47
2022-09-15T22:49:02.226Z,5.20
2022-09-15T22:51:33.022Z,8.43
2022-09-15T22:54:02.897Z,6.68
2022-09-15T22:56:30.914Z,6.95
2022-09-15T22:59:00.298Z,5.38
2022-09-15T23:01:30.779Z,7.03
2022-09-15T23:04:02.549Z,4.72
2022-09-15T23:06:33.885Z,5.00
2022-09-15T23:09:07.538Z,4.28
2022-09-15T23:11:39.775Z,5.65
2022-09-15T23:14:14.318Z,5.35
2022-09-15T23:16:43.046Z,10.43
2022-09-15T23:19:13.652Z,5.93
2022-09-15T23:21:40.750Z,5.68
2022-09-15T23:24:08.726Z,5.20
2022-09-15T23:26:35.782Z,6.90
2022-09-15T23:29:02.839Z,6.57
2022-09-15T23:31:33.049Z,4.53
2022-09-15T23:34:00.128Z,5.15
2022-09-15T23:36:27.080Z,4.63
2022-09-15T23:38:54.164Z,5.72
2022-09-15T23:41:21.533Z,7.97
2022-09-15T23:43:49.474Z,8.52
2022-09-15T23:46:16.854Z,6.32
2022-09-15T23:48:45.021Z,3.45
2022-09-15T23:51:12.095Z,4.57
2022-09-15T23:53:40.124Z,6.00
2022-09-15T23:56:07.773Z,6.20
2022-09-15T23:58:34.792Z,11.85
